sensor_id;sensor_type;location;lat;lon;timestamp;temperature;humidity
21149;DHT22;10732;51.472;6.466;2023-04-16T00:00:15;8.20;99.90
21149;DHT22;10732;51.472;6.466;2023-04-16T00:02:41;8.20;99.90
21149;DHT22;10732;51.472;6.466;2023-04-16T00:05:07;8.20;99.90
21149;DHT22;10732;51.472;6.466;2023-04-16T00:07:32;8.20;99.90
21149;DHT22;10732;51.472;6.466;2023-04-16T00:09:58;8.30;99.90
21149;DHT22;10732;51.472;6.466;2023-04-16T00:12:24;8.20;99.90
21149;DHT22;10732;51.472;6.466;2023-04-16T00:14:49;8.20;99.90
21149;DHT22;10732;51.472;6.466;2023-04-16T00:17:15;8.20;99.90
21149;DHT22;10732;51.472;6.466;2023-04-16T00:19:40;8.20;99.90
21149;DHT22;10732;51.472;6.466;2023-04-16T00:22:06;8.20;99.90
21149;DHT22;10732;51.472;6.466;2023-04-16T00:24:31;8.20;99.90
21149;DHT22;10732;51.472;6.466;2023-04-16T00:26:57;8.20;99.90
21149;DHT22;10732;51.472;6.466;2023-04-16T00:29:22;8.20;99.90
21149;DHT22;10732;51.472;6.466;2023-04-16T00:31:48;8.20;99.90
21149;DHT22;10732;51.472;6.466;2023-04-16T00:34:13;8.10;99.90
21149;DHT22;10732;51.472;6.466;2023-04-16T00:36:39;8.20;99.90
21149;DHT22;10732;51.472;6.466;2023-04-16T00:39:04;8.10;99.90
21149;DHT22;10732;51.472;6.466;2023-04-16T00:41:30;8.20;99.90
21149;DHT22;10732;51.472;6.466;2023-04-16T00:43:55;8.20;99.90
21149;DHT22;10732;51.472;6.466;2023-04-16T00:46:22;8.20;99.90
21149;DHT22;10732;51.472;6.466;2023-04-16T00:48:50;8.10;99.90
21149;DHT22;10732;51.472;6.466;2023-04-16T00:51:18;8.20;99.90
21149;DHT22;10732;51.472;6.466;2023-04-16T00:53:45;8.20;99.90
21149;DHT22;10732;51.472;6.466;2023-04-16T00:56:11;8.20;99.90
21149;DHT22;10732;51.472;6.466;2023-04-16T00:58:37;8.10;99.90
21149;DHT22;10732;51.472;6.466;2023-04-16T01:01:04;8.10;99.90
21149;DHT22;10732;51.472;6.466;2023-04-16T01:03:42;8.20;99.90
21149;DHT22;10732;51.472;6.466;2023-04-16T01:06:08;8.20;99.90
21149;DHT22;10732;51.472;6.466;2023-04-16T01:08:34;8.20;99.90
21149;DHT22;10732;51.472;6.466;2023-04-16T01:11:00;8.20;99.90
21149;DHT22;10732;51.472;6.466;2023-04-16T01:13:26;8.20;99.90
21149;DHT22;10732;51.472;6.466;2023-04-16T01:15:51;8.20;99.90
21149;DHT22;10732;51.472;6.466;2023-04-16T01:18:19;8.20;99.90
21149;DHT22;10732;51.472;6.466;2023-04-16T01:20:46;8.20;99.90
21149;DHT22;10732;51.472;6.466;2023-04-16T01:23:12;8.20;99.90
21149;DHT22;10732;51.472;6.466;2023-04-16T01:25:38;8.20;99.90
21149;DHT22;10732;51.472;6.466;2023-04-16T01:28:04;8.20;99.90
21149;DHT22;10732;51.472;6.466;2023-04-16T01:30:30;8.20;99.90
21149;DHT22;10732;51.472;6.466;2023-04-16T01:32:56;8.20;99.90
21149;DHT22;10732;51.472;6.466;2023-04-16T01:35:22;8.20;99.90
21149;DHT22;10732;51.472;6.466;2023-04-16T01:37:49;8.20;99.90
21149;DHT22;10732;51.472;6.466;2023-04-16T01:40:15;8.20;99.90
21149;DHT22;10732;51.472;6.466;2023-04-16T01:42:40;8.30;99.90
21149;DHT22;10732;51.472;6.466;2023-04-16T01:45:06;8.30;99.90
21149;DHT22;10732;51.472;6.466;2023-04-16T01:47:32;8.20;99.90
21149;DHT22;10732;51.472;6.466;2023-04-16T01:49:58;8.30;99.90
21149;DHT22;10732;51.472;6.466;2023-04-16T01:52:24;8.20;99.90
21149;DHT22;10732;51.472;6.466;2023-04-16T01:54:49;8.30;99.90
21149;DHT22;10732;51.472;6.466;2023-04-16T01:57:15;8.30;99.90
21149;DHT22;10732;51.472;6.466;2023-04-16T01:59:40;8.20;99.90
21149;DHT22;10732;51.472;6.466;2023-04-16T02:02:08;8.20;99.90
21149;DHT22;10732;51.472;6.466;2023-04-16T02:04:39;8.20;99.90
21149;DHT22;10732;51.472;6.466;2023-04-16T02:07:06;8.20;99.90
21149;DHT22;10732;51.472;6.466;2023-04-16T02:09:34;8.20;99.90
21149;DHT22;10732;51.472;6.466;2023-04-16T02:11:59;8.30;99.90
21149;DHT22;10732;51.472;6.466;2023-04-16T02:14:26;8.20;99.90
21149;DHT22;10732;51.472;6.466;2023-04-16T02:16:52;8.20;99.90
21149;DHT22;10732;51.472;6.466;2023-04-16T02:19:18;8.20;99.90
21149;DHT22;10732;51.472;6.466;2023-04-16T02:21:43;8.10;99.90
21149;DHT22;10732;51.472;6.466;2023-04-16T02:24:09;8.10;99.90
21149;DHT22;10732;51.472;6.466;2023-04-16T02:26:34;8.20;99.90
21149;DHT22;10732;51.472;6.466;2023-04-16T02:29:00;8.20;99.90
21149;DHT22;10732;51.472;6.466;2023-04-16T02:31:25;8.20;99.90
21149;DHT22;10732;51.472;6.466;2023-04-16T02:33:53;8.10;99.90
21149;DHT22;10732;51.472;6.466;2023-04-16T02:36:18;8.10;99.90
21149;DHT22;10732;51.472;6.466;2023-04-16T02:38:44;8.10;99.90
21149;DHT22;10732;51.472;6.466;2023-04-16T02:41:10;8.10;99.90
21149;DHT22;10732;51.472;6.466;2023-04-16T02:43:35;8.10;99.90
21149;DHT22;10732;51.472;6.466;2023-04-16T02:46:01;8.10;99.90
21149;DHT22;10732;51.472;6.466;2023-04-16T02:48:27;8.20;99.90
21149;DHT22;10732;51.472;6.466;2023-04-16T02:50:52;8.20;99.90
21149;DHT22;10732;51.472;6.466;2023-04-16T02:53:18;8.20;99.90
21149;DHT22;10732;51.472;6.466;2023-04-16T02:55:50;8.20;99.90
21149;DHT22;10732;51.472;6.466;2023-04-16T02:58:20;8.20;99.90
21149;DHT22;10732;51.472;6.466;2023-04-16T03:00:45;8.20;99.90
21149;DHT22;10732;51.472;6.466;2023-04-16T03:03:11;8.20;99.90
21149;DHT22;10732;51.472;6.466;2023-04-16T03:05:37;8.30;99.90
21149;DHT22;10732;51.472;6.466;2023-04-16T03:08:03;8.30;99.90
21149;DHT22;10732;51.472;6.466;2023-04-16T03:10:28;8.30;99.90
21149;DHT22;10732;51.472;6.466;2023-04-16T03:12:54;8.20;99.90
21149;DHT22;10732;51.472;6.466;2023-04-16T03:15:20;8.20;99.90
21149;DHT22;10732;51.472;6.466;2023-04-16T03:17:45;8.20;99.90
21149;DHT22;10732;51.472;6.466;2023-04-16T03:20:11;8.30;99.90
21149;DHT22;10732;51.472;6.466;2023-04-16T03:22:37;8.20;99.90
21149;DHT22;10732;51.472;6.466;2023-04-16T03:25:04;8.20;99.90
21149;DHT22;10732;51.472;6.466;2023-04-16T03:27:29;8.30;99.90
21149;DHT22;10732;51.472;6.466;2023-04-16T03:29:55;8.30;99.90
21149;DHT22;10732;51.472;6.466;2023-04-16T03:32:21;8.30;99.90
21149;DHT22;10732;51.472;6.466;2023-04-16T03:34:47;8.40;99.90
21149;DHT22;10732;51.472;6.466;2023-04-16T03:37:12;8.30;99.90
21149;DHT22;10732;51.472;6.466;2023-04-16T03:39:38;8.30;99.90
21149;DHT22;10732;51.472;6.466;2023-04-16T03:42:03;8.30;99.90
21149;DHT22;10732;51.472;6.466;2023-04-16T03:44:29;8.30;99.90
21149;DHT22;10732;51.472;6.466;2023-04-16T03:46:54;8.30;99.90
21149;DHT22;10732;51.472;6.466;2023-04-16T03:49:20;8.30;99.90
21149;DHT22;10732;51.472;6.466;2023-04-16T03:51:46;8.30;99.90
21149;DHT22;10732;51.472;6.466;2023-04-16T03:54:11;8.30;99.90
21149;DHT22;10732;51.472;6.466;2023-04-16T03:56:39;8.30;99.90
21149;DHT22;10732;51.472;6.466;2023-04-16T03:59:05;8.30;99.90
21149;DHT22;10732;51.472;6.466;2023-04-16T04:01:30;8.20;99.90
21149;DHT22;10732;51.472;6.466;2023-04-16T04:03:56;8.30;99.90
21149;DHT22;10732;51.472;6.466;2023-04-16T04:06:21;8.30;99.90
21149;DHT22;10732;51.472;6.466;2023-04-16T04:08:47;8.30;99.90
21149;DHT22;10732;51.472;6.466;2023-04-16T04:11:12;8.20;99.90
21149;DHT22;10732;51.472;6.466;2023-04-16T04:13:38;8.30;99.90
21149;DHT22;10732;51.472;6.466;2023-04-16T04:16:04;8.30;99.90
21149;DHT22;10732;51.472;6.466;2023-04-16T04:18:30;8.20;99.90
21149;DHT22;10732;51.472;6.466;2023-04-16T04:20:56;8.20;99.90
21149;DHT22;10732;51.472;6.466;2023-04-16T04:23:22;8.20;99.90
21149;DHT22;10732;51.472;6.466;2023-04-16T04:25:48;8.20;99.90
21149;DHT22;10732;51.472;6.466;2023-04-16T04:28:13;8.20;99.90
21149;DHT22;10732;51.472;6.466;2023-04-16T04:30:40;8.20;99.90
21149;DHT22;10732;51.472;6.466;2023-04-16T04:33:05;8.20;99.90
21149;DHT22;10732;51.472;6.466;2023-04-16T04:35:32;8.20;99.90
21149;DHT22;10732;51.472;6.466;2023-04-16T04:37:57;8.20;99.90
21149;DHT22;10732;51.472;6.466;2023-04-16T04:40:23;8.20;99.90
21149;DHT22;10732;51.472;6.466;2023-04-16T04:42:48;8.20;99.90
21149;DHT22;10732;51.472;6.466;2023-04-16T04:45:14;8.20;99.90
21149;DHT22;10732;51.472;6.466;2023-04-16T04:47:40;8.20;99.90
21149;DHT22;10732;51.472;6.466;2023-04-16T04:50:06;8.30;99.90
21149;DHT22;10732;51.472;6.466;2023-04-16T04:52:31;8.30;99.90
21149;DHT22;10732;51.472;6.466;2023-04-16T04:54:57;8.20;99.90
21149;DHT22;10732;51.472;6.466;2023-04-16T04:57:22;8.20;99.90
21149;DHT22;10732;51.472;6.466;2023-04-16T04:59:48;8.20;99.90
21149;DHT22;10732;51.472;6.466;2023-04-16T05:02:13;8.20;99.90
21149;DHT22;10732;51.472;6.466;2023-04-16T05:04:39;8.20;99.90
21149;DHT22;10732;51.472;6.466;2023-04-16T05:07:05;8.20;99.90
21149;DHT22;10732;51.472;6.466;2023-04-16T05:09:31;8.30;99.90
21149;DHT22;10732;51.472;6.466;2023-04-16T05:11:57;8.30;99.90
21149;DHT22;10732;51.472;6.466;2023-04-16T05:14:23;8.20;99.90
21149;DHT22;10732;51.472;6.466;2023-04-16T05:16:48;8.20;99.90
21149;DHT22;10732;51.472;6.466;2023-04-16T05:19:15;8.30;99.90
21149;DHT22;10732;51.472;6.466;2023-04-16T05:21:40;8.30;99.90
21149;DHT22;10732;51.472;6.466;2023-04-16T05:24:06;8.30;99.90
21149;DHT22;10732;51.472;6.466;2023-04-16T05:26:31;8.30;99.90
21149;DHT22;10732;51.472;6.466;2023-04-16T05:28:57;8.30;99.90
21149;DHT22;10732;51.472;6.466;2023-04-16T05:31:22;8.40;99.90
21149;DHT22;10732;51.472;6.466;2023-04-16T05:33:48;8.40;99.90
21149;DHT22;10732;51.472;6.466;2023-04-16T05:36:13;8.50;99.90
21149;DHT22;10732;51.472;6.466;2023-04-16T05:38:39;8.40;99.90
21149;DHT22;10732;51.472;6.466;2023-04-16T05:41:04;8.40;99.90
21149;DHT22;10732;51.472;6.466;2023-04-16T05:43:30;8.40;99.90
21149;DHT22;10732;51.472;6.466;2023-04-16T05:45:56;8.40;99.90
21149;DHT22;10732;51.472;6.466;2023-04-16T05:48:21;8.50;99.90
21149;DHT22;10732;51.472;6.466;2023-04-16T05:50:48;8.50;99.90
21149;DHT22;10732;51.472;6.466;2023-04-16T05:53:13;8.50;99.90
21149;DHT22;10732;51.472;6.466;2023-04-16T05:55:39;8.50;99.90
21149;DHT22;10732;51.472;6.466;2023-04-16T05:58:04;8.50;99.90
21149;DHT22;10732;51.472;6.466;2023-04-16T06:00:33;8.50;99.90
21149;DHT22;10732;51.472;6.466;2023-04-16T06:02:59;8.60;99.90
21149;DHT22;10732;51.472;6.466;2023-04-16T06:05:29;8.50;99.90
21149;DHT22;10732;51.472;6.466;2023-04-16T06:07:55;8.50;99.90
21149;DHT22;10732;51.472;6.466;2023-04-16T06:10:21;8.50;99.90
21149;DHT22;10732;51.472;6.466;2023-04-16T06:12:46;8.40;99.90
21149;DHT22;10732;51.472;6.466;2023-04-16T06:15:12;8.50;99.90
21149;DHT22;10732;51.472;6.466;2023-04-16T06:17:37;8.40;99.90
21149;DHT22;10732;51.472;6.466;2023-04-16T06:20:03;8.50;99.90
21149;DHT22;10732;51.472;6.466;2023-04-16T06:22:29;8.50;99.90
21149;DHT22;10732;51.472;6.466;2023-04-16T06:24:54;8.50;99.90
21149;DHT22;10732;51.472;6.466;2023-04-16T06:27:20;8.50;99.90
21149;DHT22;10732;51.472;6.466;2023-04-16T06:29:45;8.50;99.90
21149;DHT22;10732;51.472;6.466;2023-04-16T06:32:11;8.50;99.90
21149;DHT22;10732;51.472;6.466;2023-04-16T06:34:37;8.60;99.90
21149;DHT22;10732;51.472;6.466;2023-04-16T06:37:03;8.60;99.90
21149;DHT22;10732;51.472;6.466;2023-04-16T06:39:29;8.60;99.90
21149;DHT22;10732;51.472;6.466;2023-04-16T06:41:55;8.50;99.90
21149;DHT22;10732;51.472;6.466;2023-04-16T06:44:20;8.60;99.90
21149;DHT22;10732;51.472;6.466;2023-04-16T06:46:46;8.60;99.90
21149;DHT22;10732;51.472;6.466;2023-04-16T06:49:11;8.70;99.90
21149;DHT22;10732;51.472;6.466;2023-04-16T06:51:37;8.80;99.90
21149;DHT22;10732;51.472;6.466;2023-04-16T06:54:03;8.90;99.90
21149;DHT22;10732;51.472;6.466;2023-04-16T06:56:28;9.00;99.90
21149;DHT22;10732;51.472;6.466;2023-04-16T06:58:54;9.00;99.90
21149;DHT22;10732;51.472;6.466;2023-04-16T07:01:21;9.10;99.90
21149;DHT22;10732;51.472;6.466;2023-04-16T07:03:47;9.20;99.90
21149;DHT22;10732;51.472;6.466;2023-04-16T07:06:12;9.30;99.90
21149;DHT22;10732;51.472;6.466;2023-04-16T07:08:38;9.40;99.90
21149;DHT22;10732;51.472;6.466;2023-04-16T07:11:03;9.30;99.90
21149;DHT22;10732;51.472;6.466;2023-04-16T07:13:29;9.30;99.90
21149;DHT22;10732;51.472;6.466;2023-04-16T07:15:54;9.20;99.90
21149;DHT22;10732;51.472;6.466;2023-04-16T07:18:20;9.30;99.90
21149;DHT22;10732;51.472;6.466;2023-04-16T07:20:46;9.40;99.90
21149;DHT22;10732;51.472;6.466;2023-04-16T07:23:12;9.50;99.90
21149;DHT22;10732;51.472;6.466;2023-04-16T07:25:37;9.60;99.90
21149;DHT22;10732;51.472;6.466;2023-04-16T07:28:03;9.50;99.90
21149;DHT22;10732;51.472;6.466;2023-04-16T07:30:28;9.50;99.90
21149;DHT22;10732;51.472;6.466;2023-04-16T07:33:04;9.60;99.90
21149;DHT22;10732;51.472;6.466;2023-04-16T07:35:30;9.60;99.90
21149;DHT22;10732;51.472;6.466;2023-04-16T07:37:56;9.50;99.90
21149;DHT22;10732;51.472;6.466;2023-04-16T07:40:22;9.60;99.90
21149;DHT22;10732;51.472;6.466;2023-04-16T07:42:48;9.60;99.90
21149;DHT22;10732;51.472;6.466;2023-04-16T07:45:14;9.90;99.90
21149;DHT22;10732;51.472;6.466;2023-04-16T07:47:40;10.00;99.90
21149;DHT22;10732;51.472;6.466;2023-04-16T07:50:06;10.10;99.90
21149;DHT22;10732;51.472;6.466;2023-04-16T07:52:32;10.30;99.90
21149;DHT22;10732;51.472;6.466;2023-04-16T07:54:57;10.40;99.90
21149;DHT22;10732;51.472;6.466;2023-04-16T07:57:23;10.50;99.90
21149;DHT22;10732;51.472;6.466;2023-04-16T07:59:48;10.50;99.90
21149;DHT22;10732;51.472;6.466;2023-04-16T08:02:15;10.40;99.90
21149;DHT22;10732;51.472;6.466;2023-04-16T08:04:43;10.40;99.90
21149;DHT22;10732;51.472;6.466;2023-04-16T08:07:08;10.30;99.90
21149;DHT22;10732;51.472;6.466;2023-04-16T08:09:34;10.40;99.90
21149;DHT22;10732;51.472;6.466;2023-04-16T08:12:00;10.40;99.90
21149;DHT22;10732;51.472;6.466;2023-04-16T08:14:26;10.50;99.90
21149;DHT22;10732;51.472;6.466;2023-04-16T08:16:52;10.40;99.90
21149;DHT22;10732;51.472;6.466;2023-04-16T08:19:17;10.30;99.90
21149;DHT22;10732;51.472;6.466;2023-04-16T08:21:43;10.10;99.90
21149;DHT22;10732;51.472;6.466;2023-04-16T08:24:09;10.20;99.90
21149;DHT22;10732;51.472;6.466;2023-04-16T08:26:35;10.20;99.90
21149;DHT22;10732;51.472;6.466;2023-04-16T08:29:00;10.20;99.90
21149;DHT22;10732;51.472;6.466;2023-04-16T08:31:26;10.30;99.90
21149;DHT22;10732;51.472;6.466;2023-04-16T08:33:51;10.10;99.90
21149;DHT22;10732;51.472;6.466;2023-04-16T08:36:17;10.30;99.90
21149;DHT22;10732;51.472;6.466;2023-04-16T08:38:42;10.20;99.90
21149;DHT22;10732;51.472;6.466;2023-04-16T08:41:11;10.10;99.90
21149;DHT22;10732;51.472;6.466;2023-04-16T08:43:40;10.20;99.90
21149;DHT22;10732;51.472;6.466;2023-04-16T08:46:06;10.20;99.90
21149;DHT22;10732;51.472;6.466;2023-04-16T08:48:34;10.20;99.90
21149;DHT22;10732;51.472;6.466;2023-04-16T08:51:00;10.30;99.90
21149;DHT22;10732;51.472;6.466;2023-04-16T08:53:35;10.50;99.90
21149;DHT22;10732;51.472;6.466;2023-04-16T08:56:04;10.60;99.90
21149;DHT22;10732;51.472;6.466;2023-04-16T08:58:31;10.70;99.90
21149;DHT22;10732;51.472;6.466;2023-04-16T09:01:02;10.90;99.90
21149;DHT22;10732;51.472;6.466;2023-04-16T09:03:31;11.10;99.90
21149;DHT22;10732;51.472;6.466;2023-04-16T09:05:57;11.20;99.90
21149;DHT22;10732;51.472;6.466;2023-04-16T09:08:24;11.20;99.90
21149;DHT22;10732;51.472;6.466;2023-04-16T09:10:50;11.30;99.90
21149;DHT22;10732;51.472;6.466;2023-04-16T09:13:16;11.50;99.90
21149;DHT22;10732;51.472;6.466;2023-04-16T09:15:45;11.70;99.90
21149;DHT22;10732;51.472;6.466;2023-04-16T09:18:10;11.60;99.90
21149;DHT22;10732;51.472;6.466;2023-04-16T09:20:37;11.50;99.90
21149;DHT22;10732;51.472;6.466;2023-04-16T09:23:03;11.50;99.90
21149;DHT22;10732;51.472;6.466;2023-04-16T09:25:32;11.80;99.90
21149;DHT22;10732;51.472;6.466;2023-04-16T09:28:02;12.00;99.90
21149;DHT22;10732;51.472;6.466;2023-04-16T09:30:28;12.60;99.90
21149;DHT22;10732;51.472;6.466;2023-04-16T09:33:14;13.10;99.90
21149;DHT22;10732;51.472;6.466;2023-04-16T09:35:45;13.20;99.90
21149;DHT22;10732;51.472;6.466;2023-04-16T09:38:11;13.40;99.90
21149;DHT22;10732;51.472;6.466;2023-04-16T09:40:37;13.60;99.90
21149;DHT22;10732;51.472;6.466;2023-04-16T09:43:18;13.60;99.90
21149;DHT22;10732;51.472;6.466;2023-04-16T09:45:51;13.50;99.90
21149;DHT22;10732;51.472;6.466;2023-04-16T09:48:36;13.30;99.90
21149;DHT22;10732;51.472;6.466;2023-04-16T09:51:05;13.20;99.90
21149;DHT22;10732;51.472;6.466;2023-04-16T09:53:31;13.30;99.90
21149;DHT22;10732;51.472;6.466;2023-04-16T09:56:03;13.20;99.90
21149;DHT22;10732;51.472;6.466;2023-04-16T09:58:29;13.40;99.90
21149;DHT22;10732;51.472;6.466;2023-04-16T10:01:09;13.20;99.90
21149;DHT22;10732;51.472;6.466;2023-04-16T10:03:36;13.30;99.90
21149;DHT22;10732;51.472;6.466;2023-04-16T10:06:06;13.30;99.90
21149;DHT22;10732;51.472;6.466;2023-04-16T10:08:32;13.40;99.90
21149;DHT22;10732;51.472;6.466;2023-04-16T10:10:58;14.00;99.90
21149;DHT22;10732;51.472;6.466;2023-04-16T10:13:24;14.40;99.90
21149;DHT22;10732;51.472;6.466;2023-04-16T10:15:54;14.40;99.90
21149;DHT22;10732;51.472;6.466;2023-04-16T10:18:20;14.30;99.90
21149;DHT22;10732;51.472;6.466;2023-04-16T10:20:47;14.50;99.90
21149;DHT22;10732;51.472;6.466;2023-04-16T10:23:13;14.70;99.90
21149;DHT22;10732;51.472;6.466;2023-04-16T10:25:39;15.00;99.90
21149;DHT22;10732;51.472;6.466;2023-04-16T10:28:06;15.00;99.90
21149;DHT22;10732;51.472;6.466;2023-04-16T10:30:32;14.90;99.90
21149;DHT22;10732;51.472;6.466;2023-04-16T10:32:58;15.20;99.90
21149;DHT22;10732;51.472;6.466;2023-04-16T10:35:24;17.10;99.90
21149;DHT22;10732;51.472;6.466;2023-04-16T10:37:55;16.90;99.90
21149;DHT22;10732;51.472;6.466;2023-04-16T10:42:57;15.90;99.90
21149;DHT22;10732;51.472;6.466;2023-04-16T10:45:29;15.60;99.90
21149;DHT22;10732;51.472;6.466;2023-04-16T10:47:56;15.20;99.90
21149;DHT22;10732;51.472;6.466;2023-04-16T10:50:24;15.20;99.90
21149;DHT22;10732;51.472;6.466;2023-04-16T10:53:17;15.30;99.90
21149;DHT22;10732;51.472;6.466;2023-04-16T10:58:34;14.80;99.90
21149;DHT22;10732;51.472;6.466;2023-04-16T11:01:05;14.80;99.90
21149;DHT22;10732;51.472;6.466;2023-04-16T11:03:31;15.00;99.90
21149;DHT22;10732;51.472;6.466;2023-04-16T11:06:20;15.00;99.90
21149;DHT22;10732;51.472;6.466;2023-04-16T11:08:50;14.80;99.90
21149;DHT22;10732;51.472;6.466;2023-04-16T11:11:17;15.30;99.90
21149;DHT22;10732;51.472;6.466;2023-04-16T11:13:43;14.90;99.90
21149;DHT22;10732;51.472;6.466;2023-04-16T11:16:10;15.20;99.90
21149;DHT22;10732;51.472;6.466;2023-04-16T11:18:37;15.10;99.90
21149;DHT22;10732;51.472;6.466;2023-04-16T11:21:08;14.80;99.90
21149;DHT22;10732;51.472;6.466;2023-04-16T11:23:50;15.10;99.90
21149;DHT22;10732;51.472;6.466;2023-04-16T11:26:27;16.00;99.90
21149;DHT22;10732;51.472;6.466;2023-04-16T11:28:54;17.10;99.90
21149;DHT22;10732;51.472;6.466;2023-04-16T11:31:24;17.30;99.90
21149;DHT22;10732;51.472;6.466;2023-04-16T11:33:51;17.10;99.90
21149;DHT22;10732;51.472;6.466;2023-04-16T11:36:17;16.30;99.90
21149;DHT22;10732;51.472;6.466;2023-04-16T11:38:42;15.80;99.90
21149;DHT22;10732;51.472;6.466;2023-04-16T11:41:09;15.00;99.90
21149;DHT22;10732;51.472;6.466;2023-04-16T11:43:35;14.80;99.90
21149;DHT22;10732;51.472;6.466;2023-04-16T11:46:05;14.90;99.90
21149;DHT22;10732;51.472;6.466;2023-04-16T11:48:47;15.00;99.90
21149;DHT22;10732;51.472;6.466;2023-04-16T11:51:13;14.50;99.90
21149;DHT22;10732;51.472;6.466;2023-04-16T11:53:46;14.30;99.90
21149;DHT22;10732;51.472;6.466;2023-04-16T11:56:12;14.80;99.90
21149;DHT22;10732;51.472;6.466;2023-04-16T11:58:38;14.70;99.90
21149;DHT22;10732;51.472;6.466;2023-04-16T12:01:04;15.40;99.90
21149;DHT22;10732;51.472;6.466;2023-04-16T12:03:40;15.40;99.90
21149;DHT22;10732;51.472;6.466;2023-04-16T12:06:10;15.90;99.90
21149;DHT22;10732;51.472;6.466;2023-04-16T12:08:35;16.10;99.90
21149;DHT22;10732;51.472;6.466;2023-04-16T12:11:01;16.50;99.90
21149;DHT22;10732;51.472;6.466;2023-04-16T12:13:26;16.10;99.90
21149;DHT22;10732;51.472;6.466;2023-04-16T12:15:55;16.00;99.90
21149;DHT22;10732;51.472;6.466;2023-04-16T12:18:25;16.20;99.90
21149;DHT22;10732;51.472;6.466;2023-04-16T12:20:53;15.80;99.90
21149;DHT22;10732;51.472;6.466;2023-04-16T12:23:26;15.70;99.90
21149;DHT22;10732;51.472;6.466;2023-04-16T12:25:53;15.40;99.90
21149;DHT22;10732;51.472;6.466;2023-04-16T12:28:32;15.70;99.90
21149;DHT22;10732;51.472;6.466;2023-04-16T12:30:58;15.90;99.90
21149;DHT22;10732;51.472;6.466;2023-04-16T12:33:24;16.00;99.90
21149;DHT22;10732;51.472;6.466;2023-04-16T12:35:49;16.00;99.90
21149;DHT22;10732;51.472;6.466;2023-04-16T12:38:15;16.50;99.90
21149;DHT22;10732;51.472;6.466;2023-04-16T12:40:41;16.00;99.90
21149;DHT22;10732;51.472;6.466;2023-04-16T12:43:08;15.90;99.90
21149;DHT22;10732;51.472;6.466;2023-04-16T12:45:33;15.70;99.90
21149;DHT22;10732;51.472;6.466;2023-04-16T12:47:59;15.60;99.90
21149;DHT22;10732;51.472;6.466;2023-04-16T12:50:25;16.00;99.90
21149;DHT22;10732;51.472;6.466;2023-04-16T12:52:50;16.00;99.90
21149;DHT22;10732;51.472;6.466;2023-04-16T12:55:16;15.70;99.90
21149;DHT22;10732;51.472;6.466;2023-04-16T12:57:43;16.20;99.90
21149;DHT22;10732;51.472;6.466;2023-04-16T13:00:10;15.90;99.90
21149;DHT22;10732;51.472;6.466;2023-04-16T13:02:35;15.70;99.90
21149;DHT22;10732;51.472;6.466;2023-04-16T13:05:01;15.90;99.90
21149;DHT22;10732;51.472;6.466;2023-04-16T13:07:27;16.10;99.90
21149;DHT22;10732;51.472;6.466;2023-04-16T13:09:53;16.60;99.90
21149;DHT22;10732;51.472;6.466;2023-04-16T13:12:18;17.00;99.90
21149;DHT22;10732;51.472;6.466;2023-04-16T13:14:44;17.40;99.90
21149;DHT22;10732;51.472;6.466;2023-04-16T13:17:10;17.60;99.90
21149;DHT22;10732;51.472;6.466;2023-04-16T13:19:35;17.80;99.90
21149;DHT22;10732;51.472;6.466;2023-04-16T13:22:01;18.20;99.90
21149;DHT22;10732;51.472;6.466;2023-04-16T13:24:26;17.60;99.90
21149;DHT22;10732;51.472;6.466;2023-04-16T13:26:52;17.10;99.90
21149;DHT22;10732;51.472;6.466;2023-04-16T13:29:21;17.20;99.90
21149;DHT22;10732;51.472;6.466;2023-04-16T13:31:47;16.70;99.90
21149;DHT22;10732;51.472;6.466;2023-04-16T13:34:12;17.00;99.90
21149;DHT22;10732;51.472;6.466;2023-04-16T13:36:38;17.20;99.90
21149;DHT22;10732;51.472;6.466;2023-04-16T13:39:03;17.20;99.90
21149;DHT22;10732;51.472;6.466;2023-04-16T13:41:35;16.40;99.90
21149;DHT22;10732;51.472;6.466;2023-04-16T13:44:00;15.90;99.90
21149;DHT22;10732;51.472;6.466;2023-04-16T13:46:26;15.70;99.90
21149;DHT22;10732;51.472;6.466;2023-04-16T13:48:52;15.50;99.90
21149;DHT22;10732;51.472;6.466;2023-04-16T13:51:18;15.30;99.90
21149;DHT22;10732;51.472;6.466;2023-04-16T13:53:43;15.60;99.90
21149;DHT22;10732;51.472;6.466;2023-04-16T13:56:09;15.80;99.90
21149;DHT22;10732;51.472;6.466;2023-04-16T13:58:35;16.10;99.90
21149;DHT22;10732;51.472;6.466;2023-04-16T14:01:01;16.30;99.90
21149;DHT22;10732;51.472;6.466;2023-04-16T14:03:26;16.30;99.90
21149;DHT22;10732;51.472;6.466;2023-04-16T14:05:52;16.30;99.90
21149;DHT22;10732;51.472;6.466;2023-04-16T14:08:18;16.20;99.90
21149;DHT22;10732;51.472;6.466;2023-04-16T14:10:48;15.80;99.90
21149;DHT22;10732;51.472;6.466;2023-04-16T14:13:14;15.50;99.90
21149;DHT22;10732;51.472;6.466;2023-04-16T14:15:40;15.20;99.90
21149;DHT22;10732;51.472;6.466;2023-04-16T14:18:05;14.90;99.90
21149;DHT22;10732;51.472;6.466;2023-04-16T14:20:31;14.60;99.90
21149;DHT22;10732;51.472;6.466;2023-04-16T14:22:56;14.40;99.90
21149;DHT22;10732;51.472;6.466;2023-04-16T14:25:22;14.60;99.90
21149;DHT22;10732;51.472;6.466;2023-04-16T14:27:48;14.70;99.90
21149;DHT22;10732;51.472;6.466;2023-04-16T14:30:14;14.60;99.90
21149;DHT22;10732;51.472;6.466;2023-04-16T14:32:41;14.50;99.90
21149;DHT22;10732;51.472;6.466;2023-04-16T14:35:06;14.80;99.90
21149;DHT22;10732;51.472;6.466;2023-04-16T14:37:32;14.80;99.90
21149;DHT22;10732;51.472;6.466;2023-04-16T14:40:00;15.00;99.90
21149;DHT22;10732;51.472;6.466;2023-04-16T14:42:25;15.00;99.90
21149;DHT22;10732;51.472;6.466;2023-04-16T14:44:51;14.80;99.90
21149;DHT22;10732;51.472;6.466;2023-04-16T14:47:16;14.90;99.90
21149;DHT22;10732;51.472;6.466;2023-04-16T14:49:42;14.90;99.90
21149;DHT22;10732;51.472;6.466;2023-04-16T14:52:08;14.90;99.90
21149;DHT22;10732;51.472;6.466;2023-04-16T14:54:33;14.90;99.90
21149;DHT22;10732;51.472;6.466;2023-04-16T14:56:59;14.80;99.90
21149;DHT22;10732;51.472;6.466;2023-04-16T14:59:26;14.90;99.90
21149;DHT22;10732;51.472;6.466;2023-04-16T15:01:53;15.00;99.90
21149;DHT22;10732;51.472;6.466;2023-04-16T15:04:18;14.90;99.90
21149;DHT22;10732;51.472;6.466;2023-04-16T15:06:44;14.90;99.90
21149;DHT22;10732;51.472;6.466;2023-04-16T15:09:09;15.10;99.90
21149;DHT22;10732;51.472;6.466;2023-04-16T15:11:35;15.30;99.90
21149;DHT22;10732;51.472;6.466;2023-04-16T15:14:00;15.40;99.90
21149;DHT22;10732;51.472;6.466;2023-04-16T15:16:26;15.00;99.90
21149;DHT22;10732;51.472;6.466;2023-04-16T15:18:52;14.70;99.90
21149;DHT22;10732;51.472;6.466;2023-04-16T15:21:17;14.50;99.90
21149;DHT22;10732;51.472;6.466;2023-04-16T15:23:43;14.30;99.90
21149;DHT22;10732;51.472;6.466;2023-04-16T15:26:08;14.20;99.90
21149;DHT22;10732;51.472;6.466;2023-04-16T15:28:34;14.10;99.90
21149;DHT22;10732;51.472;6.466;2023-04-16T15:30:59;13.90;99.90
21149;DHT22;10732;51.472;6.466;2023-04-16T15:33:26;13.80;99.90
21149;DHT22;10732;51.472;6.466;2023-04-16T15:35:52;13.80;99.90
21149;DHT22;10732;51.472;6.466;2023-04-16T15:38:17;13.60;99.90